Time;durP1;ratioP1;P1;durP2;ratioP2;P2;SDS_P1;SDS_P2;PMS_P1;PMS_P2;Temp;Humidity;BMP_temperature;BMP_pressure;BME280_temperature;BME280_humidity;BME280_pressure;Samples;Min_cycle;Max_cycle;Signal;HPM_P1;HPM_P2
2023/09/11 00:01:35;;;;;;;;;;;;;;;18.38;89.15;100412.15;677955;1262;125993;-79
2023/09/11 00:16:39;;;;;;;;;;;;;;;18.37;89.36;100398.16;671017;1263;125476;-78
2023/09/11 00:31:42;;;;;;;;;;;;;;;18.28;89.74;100394.95;671038;1261;126899;-79
2023/09/11 00:46:45;;;;;;;;;;;;;;;18.08;90.23;100392.17;670871;1263;126396;-77
2023/09/11 01:01:49;;;;;;;;;;;;;;;17.91;90.71;100387.66;674758;1263;125466;-78
2023/09/11 01:16:58;;;;;;;;;;;;;;;17.78;90.86;100382.42;673544;1263;126997;-78
2023/09/11 01:32:02;;;;;;;;;;;;;;;17.67;90.90;100375.33;671576;1263;125590;-77
2023/09/11 01:47:07;;;;;;;;;;;;;;;17.53;91.27;100378.11;673606;1264;126447;-77
2023/09/11 02:02:10;;;;;;;;;;;;;;;17.14;92.82;100368.74;673344;1263;149941;-77
2023/09/11 02:17:13;;;;;;;;;;;;;;;17.06;94.12;100368.24;672179;1263;125536;-78
2023/09/11 02:32:18;;;;;;;;;;;;;;;17.33;93.26;100360.36;673455;1261;126845;-78
2023/09/11 02:47:21;;;;;;;;;;;;;;;17.34;92.82;100359.18;673548;1263;125604;-78
2023/09/11 03:02:25;;;;;;;;;;;;;;;17.18;93.41;100351.00;673698;1257;125868;-78
2023/09/11 03:17:29;;;;;;;;;;;;;;;17.16;92.93;100341.27;673525;1273;125665;-78
2023/09/11 03:32:32;;;;;;;;;;;;;;;17.06;92.13;100336.44;673350;1261;125370;-78
2023/09/11 03:47:36;;;;;;;;;;;;;;;16.96;91.78;100327.83;673675;1260;126135;-78
2023/09/11 04:02:39;;;;;;;;;;;;;;;16.85;92.63;100318.30;670770;1261;125988;-78
2023/09/11 04:17:43;;;;;;;;;;;;;;;16.67;93.22;100315.06;669134;1259;125320;-77
2023/09/11 04:32:47;;;;;;;;;;;;;;;16.75;92.60;100314.03;669962;1257;125466;-77
2023/09/11 04:47:50;;;;;;;;;;;;;;;16.75;94.07;100311.27;671988;1276;125741;-75
2023/09/11 05:02:54;;;;;;;;;;;;;;;16.93;93.78;100303.82;677410;1262;125936;-76
2023/09/11 05:17:58;;;;;;;;;;;;;;;17.15;93.00;100304.83;674987;1260;125148;-76
2023/09/11 05:33:01;;;;;;;;;;;;;;;17.50;92.67;100302.71;668794;1274;125694;-75
2023/09/11 05:48:05;;;;;;;;;;;;;;;17.90;93.63;100315.26;668733;1261;125552;-76
2023/09/11 06:03:09;;;;;;;;;;;;;;;19.08;96.99;100325.38;669214;1262;125882;-76
2023/09/11 06:18:13;;;;;;;;;;;;;;;24.03;87.14;100323.17;669484;1264;126340;-76
2023/09/11 06:33:16;;;;;;;;;;;;;;;27.46;77.49;100331.85;669398;1260;126050;-76
2023/09/11 06:48:21;;;;;;;;;;;;;;;29.37;69.51;100328.52;669113;1276;124875;-79
2023/09/11 07:03:27;;;;;;;;;;;;;;;30.45;63.99;100328.41;669032;1261;126987;-76
2023/09/11 07:18:31;;;;;;;;;;;;;;;30.66;62.31;100334.88;668890;1261;125119;-78
2023/09/11 07:33:35;;;;;;;;;;;;;;;31.17;61.28;100333.52;668477;1266;126399;-78
2023/09/11 07:48:38;;;;;;;;;;;;;;;31.63;60.22;100328.20;671272;1260;125844;-78
2023/09/11 08:03:44;;;;;;;;;;;;;;;32.74;59.18;100321.73;670075;1262;125465;-77
2023/09/11 08:18:48;;;;;;;;;;;;;;;32.97;57.53;100320.41;672259;1262;126151;-75
2023/09/11 08:33:51;;;;;;;;;;;;;;;33.05;56.61;100319.69;669625;1261;126733;-76
2023/09/11 08:48:59;;;;;;;;;;;;;;;33.40;56.69;100316.25;669303;1259;126431;-77
2023/09/11 09:04:03;;;;;;;;;;;;;;;34.27;58.27;100307.41;668998;1263;126995;-75
2023/09/11 09:19:06;;;;;;;;;;;;;;;35.11;56.85;100307.95;669231;1262;124742;-76
2023/09/11 09:34:09;;;;;;;;;;;;;;;35.56;56.25;100301.78;668950;1260;125723;-76
2023/09/11 09:49:14;;;;;;;;;;;;;;;36.25;55.55;100292.90;669272;1258;125312;-76
2023/09/11 10:04:19;;;;;;;;;;;;;;;36.40;53.02;100278.57;669166;1263;125577;-76
2023/09/11 10:19:22;;;;;;;;;;;;;;;36.63;52.23;100262.94;674838;1263;124744;-78
2023/09/11 10:34:26;;;;;;;;;;;;;;;36.44;51.25;100254.07;673276;1263;125180;-76
2023/09/11 10:57:27;;;;;;;;;;;;;;;36.33;51.01;100236.48;649356;1299;544039;-77
2023/09/11 11:12:31;;;;;;;;;;;;;;;36.23;50.12;100225.42;664490;1279;123922;-77
2023/09/11 11:27:35;;;;;;;;;;;;;;;36.41;49.78;100220.17;664941;1271;125929;-77
2023/09/11 11:42:40;;;;;;;;;;;;;;;36.24;48.22;100210.67;663721;1275;125807;-77
2023/09/11 11:57:43;;;;;;;;;;;;;;;35.97;48.47;100207.12;663157;1274;124196;-76
2023/09/11 12:12:46;;;;;;;;;;;;;;;35.78;48.61;100204.18;667393;1269;125797;-77
2023/09/11 12:27:50;;;;;;;;;;;;;;;35.16;49.08;100202.45;667008;1270;125782;-77
2023/09/11 12:42:54;;;;;;;;;;;;;;;35.06;49.76;100190.38;668328;1267;123966;-78
2023/09/11 12:57:58;;;;;;;;;;;;;;;34.99;49.66;100182.11;668241;1265;124264;-77
2023/09/11 13:13:03;;;;;;;;;;;;;;;34.73;50.34;100180.19;669384;1282;124228;-78
2023/09/11 13:28:07;;;;;;;;;;;;;;;34.39;50.27;100180.38;669082;1266;124680;-77
2023/09/11 13:43:10;;;;;;;;;;;;;;;33.92;50.50;100168.84;669444;1265;124810;-78
2023/09/11 13:58:13;;;;;;;;;;;;;;;33.61;50.41;100157.17;672311;1269;124781;-78
2023/09/11 14:13:19;;;;;;;;;;;;;;;33.37;51.41;100148.36;670414;1265;124767;-79
2023/09/11 14:28:23;;;;;;;;;;;;;;;33.25;51.65;100141.54;672493;1266;124862;-79
2023/09/11 14:43:26;;;;;;;;;;;;;;;33.05;52.22;100129.13;672083;1268;125421;-79
2023/09/11 14:58:30;;;;;;;;;;;;;;;32.98;52.22;100128.09;671786;1269;124760;-80
2023/09/11 15:13:34;;;;;;;;;;;;;;;32.51;52.39;100123.73;672574;1264;124567;-80
2023/09/11 15:28:37;;;;;;;;;;;;;;;32.22;52.54;100122.73;672986;1264;125167;-79
2023/09/11 15:43:42;;;;;;;;;;;;;;;31.93;52.67;100118.21;673676;1260;124845;-82
2023/09/11 15:58:47;;;;;;;;;;;;;;;31.18;54.50;100117.83;678106;1264;124307;-78
2023/09/11 16:13:50;;;;;;;;;;;;;;;30.27;56.45;100125.45;672747;1261;124408;-76
2023/09/11 16:28:53;;;;;;;;;;;;;;;29.28;58.09;100119.92;668235;1263;125397;-78
2023/09/11 16:43:57;;;;;;;;;;;;;;;27.80;60.65;100116.62;668327;1260;124808;-76
2023/09/11 16:59:00;;;;;;;;;;;;;;;26.60;62.31;100103.05;668916;1260;125416;-75
2023/09/11 17:14:04;;;;;;;;;;;;;;;25.93;64.01;100099.66;667875;1264;126478;-76
2023/09/11 17:29:07;;;;;;;;;;;;;;;25.43;65.44;100106.41;668579;1271;125090;-77
2023/09/11 17:44:11;;;;;;;;;;;;;;;24.79;66.83;100104.29;669007;1260;124431;-79
2023/09/11 17:59:14;;;;;;;;;;;;;;;24.14;68.21;100105.66;671088;1263;124525;-81
2023/09/11 18:14:18;;;;;;;;;;;;;;;23.78;70.07;100114.30;670569;1260;125421;-78
2023/09/11 18:29:23;;;;;;;;;;;;;;;23.47;71.42;100114.99;669728;1259;125131;-78
2023/09/11 18:44:26;;;;;;;;;;;;;;;23.12;73.09;100124.48;670116;1257;125153;-79
2023/09/11 18:59:30;;;;;;;;;;;;;;;22.83;75.21;100136.38;673864;1260;126552;-79
2023/09/11 19:14:33;;;;;;;;;;;;;;;22.37;76.76;100137.94;673955;1256;125035;-80
2023/09/11 19:29:37;;;;;;;;;;;;;;;21.95;77.11;100144.48;672567;1260;126319;-79
2023/09/11 19:44:40;;;;;;;;;;;;;;;21.80;78.73;100143.31;674760;1256;125185;-79
2023/09/11 19:59:45;;;;;;;;;;;;;;;21.57;79.01;100145.10;674128;1260;125935;-79
2023/09/11 20:15:03;;;;;;;;;;;;;;;21.41;79.99;100139.13;674544;1254;125173;-79
2023/09/11 20:30:06;;;;;;;;;;;;;;;21.06;81.51;100139.75;674639;1260;125594;-79
2023/09/11 20:45:10;;;;;;;;;;;;;;;20.96;82.33;100137.98;674468;1260;126685;-79
2023/09/11 21:00:14;;;;;;;;;;;;;;;20.73;83.88;100136.32;674246;1260;125090;-79
2023/09/11 21:15:18;;;;;;;;;;;;;;;20.58;84.61;100141.05;678592;1260;125150;-80
2023/09/11 21:30:21;;;;;;;;;;;;;;;20.38;85.46;100144.50;675024;1257;125298;-80
2023/09/11 21:45:25;;;;;;;;;;;;;;;20.05;86.44;100144.11;674520;1272;125906;-80
2023/09/11 22:00:28;;;;;;;;;;;;;;;19.85;87.84;100145.59;674782;1260;125070;-80
2023/09/11 22:15:34;;;;;;;;;;;;;;;19.85;87.70;100141.00;674887;1260;126606;-80
2023/09/11 22:30:37;;;;;;;;;;;;;;;19.71;88.15;100143.48;672641;1260;127528;-79
2023/09/11 22:45:40;;;;;;;;;;;;;;;19.57;89.01;100140.63;669808;1261;126799;-79
2023/09/11 23:00:44;;;;;;;;;;;;;;;19.44;89.01;100142.58;669817;1262;126079;-79
2023/09/11 23:15:47;;;;;;;;;;;;;;;19.33;89.63;100137.15;669255;1261;125945;-79
2023/09/11 23:30:56;;;;;;;;;;;;;;;19.08;90.52;100135.15;675576;1260;125441;-78
2023/09/11 23:46:00;;;;;;;;;;;;;;;18.96;90.62;100130.83;668405;1263;126373;-78
